sensor_id;sensor_type;location;lat;lon;timestamp;P1;durP1;ratioP1;P2;durP2;ratioP2
77111;SDS011;66064;50.226;14.344;2022-12-20T00:00:45;81.32;;;52.25;;
77111;SDS011;66064;50.226;14.344;2022-12-20T00:03:15;73.68;;;51.78;;
77111;SDS011;66064;50.226;14.344;2022-12-20T00:05:41;76.78;;;49.25;;
77111;SDS011;66064;50.226;14.344;2022-12-20T00:08:08;81.72;;;57.08;;
77111;SDS011;66064;50.226;14.344;2022-12-20T00:10:38;90.85;;;53.78;;
77111;SDS011;66064;50.226;14.344;2022-12-20T00:13:05;76.25;;;51.38;;
77111;SDS011;66064;50.226;14.344;2022-12-20T00:15:32;66.40;;;46.10;;
77111;SDS011;66064;50.226;14.344;2022-12-20T00:17:58;88.25;;;54.40;;
77111;SDS011;66064;50.226;14.344;2022-12-20T00:20:25;81.50;;;54.03;;
77111;SDS011;66064;50.226;14.344;2022-12-20T00:22:52;76.20;;;49.35;;
77111;SDS011;66064;50.226;14.344;2022-12-20T00:25:18;71.30;;;44.65;;
77111;SDS011;66064;50.226;14.344;2022-12-20T00:27:45;75.80;;;46.88;;
77111;SDS011;66064;50.226;14.344;2022-12-20T00:30:14;73.45;;;46.08;;
77111;SDS011;66064;50.226;14.344;2022-12-20T00:32:42;65.63;;;44.85;;
77111;SDS011;66064;50.226;14.344;2022-12-20T00:35:08;59.05;;;40.80;;
77111;SDS011;66064;50.226;14.344;2022-12-20T00:37:34;71.03;;;39.28;;
77111;SDS011;66064;50.226;14.344;2022-12-20T00:40:00;63.47;;;43.88;;
77111;SDS011;66064;50.226;14.344;2022-12-20T00:42:26;72.53;;;44.35;;
77111;SDS011;66064;50.226;14.344;2022-12-20T00:44:52;63.90;;;39.78;;
77111;SDS011;66064;50.226;14.344;2022-12-20T00:47:18;65.45;;;43.38;;
77111;SDS011;66064;50.226;14.344;2022-12-20T00:49:43;58.95;;;40.42;;
77111;SDS011;66064;50.226;14.344;2022-12-20T00:52:09;64.82;;;43.47;;
77111;SDS011;66064;50.226;14.344;2022-12-20T00:54:35;65.13;;;43.25;;
77111;SDS011;66064;50.226;14.344;2022-12-20T00:57:01;67.72;;;42.83;;
77111;SDS011;66064;50.226;14.344;2022-12-20T00:59:27;75.47;;;50.63;;
77111;SDS011;66064;50.226;14.344;2022-12-20T01:01:53;111.18;;;68.05;;
77111;SDS011;66064;50.226;14.344;2022-12-20T01:04:19;69.50;;;48.03;;
77111;SDS011;66064;50.226;14.344;2022-12-20T01:06:45;62.05;;;42.33;;
77111;SDS011;66064;50.226;14.344;2022-12-20T01:09:10;74.63;;;53.83;;
77111;SDS011;66064;50.226;14.344;2022-12-20T01:11:37;84.25;;;52.17;;
77111;SDS011;66064;50.226;14.344;2022-12-20T01:14:09;65.07;;;41.80;;
77111;SDS011;66064;50.226;14.344;2022-12-20T01:16:38;68.03;;;40.78;;
77111;SDS011;66064;50.226;14.344;2022-12-20T01:19:05;62.20;;;39.45;;
77111;SDS011;66064;50.226;14.344;2022-12-20T01:21:32;72.38;;;49.35;;
77111;SDS011;66064;50.226;14.344;2022-12-20T01:23:58;65.35;;;43.88;;
77111;SDS011;66064;50.226;14.344;2022-12-20T01:26:26;63.70;;;44.72;;
77111;SDS011;66064;50.226;14.344;2022-12-20T01:28:54;70.40;;;44.08;;
77111;SDS011;66064;50.226;14.344;2022-12-20T01:31:21;62.08;;;39.78;;
77111;SDS011;66064;50.226;14.344;2022-12-20T01:33:47;84.57;;;57.63;;
77111;SDS011;66064;50.226;14.344;2022-12-20T01:36:18;107.80;;;65.78;;
77111;SDS011;66064;50.226;14.344;2022-12-20T01:38:46;110.28;;;63.45;;
77111;SDS011;66064;50.226;14.344;2022-12-20T01:41:16;100.30;;;60.45;;
77111;SDS011;66064;50.226;14.344;2022-12-20T01:46:30;81.32;;;57.38;;
77111;SDS011;66064;50.226;14.344;2022-12-20T01:49:05;76.57;;;49.65;;
77111;SDS011;66064;50.226;14.344;2022-12-20T01:51:50;80.53;;;53.00;;
77111;SDS011;66064;50.226;14.344;2022-12-20T01:54:33;74.53;;;47.13;;
77111;SDS011;66064;50.226;14.344;2022-12-20T01:57:05;76.13;;;50.05;;
77111;SDS011;66064;50.226;14.344;2022-12-20T01:59:36;80.18;;;49.83;;
77111;SDS011;66064;50.226;14.344;2022-12-20T02:02:06;70.10;;;43.80;;
77111;SDS011;66064;50.226;14.344;2022-12-20T02:04:35;72.95;;;42.53;;
77111;SDS011;66064;50.226;14.344;2022-12-20T02:07:01;71.88;;;42.50;;
77111;SDS011;66064;50.226;14.344;2022-12-20T02:09:28;70.63;;;44.53;;
77111;SDS011;66064;50.226;14.344;2022-12-20T02:23:04;67.80;;;47.42;;
77111;SDS011;66064;50.226;14.344;2022-12-20T02:25:57;66.55;;;43.70;;
77111;SDS011;66064;50.226;14.344;2022-12-20T02:31:24;60.17;;;40.60;;
77111;SDS011;66064;50.226;14.344;2022-12-20T02:33:54;51.38;;;41.17;;
77111;SDS011;66064;50.226;14.344;2022-12-20T02:36:23;65.68;;;44.40;;
77111;SDS011;66064;50.226;14.344;2022-12-20T02:38:50;55.30;;;36.20;;
77111;SDS011;66064;50.226;14.344;2022-12-20T02:41:26;59.88;;;41.90;;
77111;SDS011;66064;50.226;14.344;2022-12-20T02:44:00;56.92;;;38.55;;
77111;SDS011;66064;50.226;14.344;2022-12-20T02:46:48;61.97;;;40.20;;
77111;SDS011;66064;50.226;14.344;2022-12-20T02:49:17;70.68;;;46.90;;
77111;SDS011;66064;50.226;14.344;2022-12-20T02:51:46;72.03;;;44.70;;
77111;SDS011;66064;50.226;14.344;2022-12-20T02:56:44;61.85;;;40.60;;
77111;SDS011;66064;50.226;14.344;2022-12-20T02:59:20;64.10;;;42.95;;
77111;SDS011;66064;50.226;14.344;2022-12-20T03:01:50;66.68;;;44.83;;
77111;SDS011;66064;50.226;14.344;2022-12-20T03:04:18;64.07;;;47.38;;
77111;SDS011;66064;50.226;14.344;2022-12-20T03:07:03;71.15;;;48.15;;
77111;SDS011;66064;50.226;14.344;2022-12-20T03:09:32;65.03;;;41.53;;
77111;SDS011;66064;50.226;14.344;2022-12-20T03:11:59;67.45;;;47.92;;
77111;SDS011;66064;50.226;14.344;2022-12-20T03:14:26;71.50;;;46.33;;
77111;SDS011;66064;50.226;14.344;2022-12-20T03:16:52;52.47;;;37.70;;
77111;SDS011;66064;50.226;14.344;2022-12-20T03:19:18;55.50;;;37.03;;
77111;SDS011;66064;50.226;14.344;2022-12-20T03:21:44;70.03;;;42.33;;
77111;SDS011;66064;50.226;14.344;2022-12-20T03:24:11;59.60;;;38.47;;
77111;SDS011;66064;50.226;14.344;2022-12-20T03:26:38;76.20;;;48.80;;
77111;SDS011;66064;50.226;14.344;2022-12-20T03:29:05;74.15;;;43.67;;
77111;SDS011;66064;50.226;14.344;2022-12-20T03:31:30;58.92;;;45.15;;
77111;SDS011;66064;50.226;14.344;2022-12-20T03:33:56;53.78;;;38.33;;
77111;SDS011;66064;50.226;14.344;2022-12-20T03:36:22;61.90;;;41.33;;
77111;SDS011;66064;50.226;14.344;2022-12-20T03:38:50;58.17;;;34.90;;
77111;SDS011;66064;50.226;14.344;2022-12-20T03:41:16;64.75;;;39.17;;
77111;SDS011;66064;50.226;14.344;2022-12-20T03:43:42;54.58;;;37.17;;
77111;SDS011;66064;50.226;14.344;2022-12-20T03:46:08;52.00;;;34.60;;
77111;SDS011;66064;50.226;14.344;2022-12-20T03:48:33;60.75;;;36.13;;
77111;SDS011;66064;50.226;14.344;2022-12-20T03:50:59;63.08;;;37.58;;
77111;SDS011;66064;50.226;14.344;2022-12-20T03:53:25;53.70;;;37.33;;
77111;SDS011;66064;50.226;14.344;2022-12-20T03:55:51;55.53;;;40.38;;
77111;SDS011;66064;50.226;14.344;2022-12-20T03:58:17;56.95;;;35.05;;
77111;SDS011;66064;50.226;14.344;2022-12-20T04:00:43;54.05;;;36.35;;
77111;SDS011;66064;50.226;14.344;2022-12-20T04:03:09;58.35;;;37.90;;
77111;SDS011;66064;50.226;14.344;2022-12-20T04:05:34;58.58;;;42.72;;
77111;SDS011;66064;50.226;14.344;2022-12-20T04:08:01;59.47;;;36.47;;
77111;SDS011;66064;50.226;14.344;2022-12-20T04:10:27;60.58;;;35.30;;
77111;SDS011;66064;50.226;14.344;2022-12-20T04:12:53;53.42;;;36.67;;
77111;SDS011;66064;50.226;14.344;2022-12-20T04:15:18;58.05;;;39.97;;
77111;SDS011;66064;50.226;14.344;2022-12-20T04:17:45;64.25;;;38.85;;
77111;SDS011;66064;50.226;14.344;2022-12-20T04:20:12;49.17;;;30.23;;
77111;SDS011;66064;50.226;14.344;2022-12-20T04:22:48;52.25;;;34.83;;
77111;SDS011;66064;50.226;14.344;2022-12-20T04:25:16;52.22;;;35.30;;
77111;SDS011;66064;50.226;14.344;2022-12-20T04:27:45;54.25;;;34.78;;
77111;SDS011;66064;50.226;14.344;2022-12-20T04:30:11;52.72;;;35.78;;
77111;SDS011;66064;50.226;14.344;2022-12-20T04:32:39;56.10;;;35.83;;
77111;SDS011;66064;50.226;14.344;2022-12-20T04:35:05;52.20;;;37.83;;
77111;SDS011;66064;50.226;14.344;2022-12-20T04:37:31;61.00;;;38.10;;
77111;SDS011;66064;50.226;14.344;2022-12-20T04:39:57;65.38;;;43.15;;
77111;SDS011;66064;50.226;14.344;2022-12-20T04:42:23;49.85;;;33.90;;
77111;SDS011;66064;50.226;14.344;2022-12-20T04:44:49;43.50;;;30.25;;
77111;SDS011;66064;50.226;14.344;2022-12-20T04:47:15;56.45;;;35.25;;
77111;SDS011;66064;50.226;14.344;2022-12-20T04:49:41;46.25;;;32.17;;
77111;SDS011;66064;50.226;14.344;2022-12-20T04:52:07;49.85;;;34.67;;
77111;SDS011;66064;50.226;14.344;2022-12-20T04:54:51;48.90;;;33.90;;
77111;SDS011;66064;50.226;14.344;2022-12-20T04:57:18;59.55;;;39.30;;
77111;SDS011;66064;50.226;14.344;2022-12-20T04:59:43;53.90;;;37.13;;
77111;SDS011;66064;50.226;14.344;2022-12-20T05:02:09;60.55;;;39.55;;
77111;SDS011;66064;50.226;14.344;2022-12-20T05:04:35;54.83;;;37.35;;
77111;SDS011;66064;50.226;14.344;2022-12-20T05:07:01;50.13;;;39.20;;
77111;SDS011;66064;50.226;14.344;2022-12-20T05:09:27;55.15;;;38.40;;
77111;SDS011;66064;50.226;14.344;2022-12-20T05:11:53;56.15;;;38.08;;
77111;SDS011;66064;50.226;14.344;2022-12-20T05:14:19;51.03;;;36.08;;
77111;SDS011;66064;50.226;14.344;2022-12-20T05:16:45;60.42;;;39.67;;
77111;SDS011;66064;50.226;14.344;2022-12-20T05:19:10;58.45;;;33.97;;
77111;SDS011;66064;50.226;14.344;2022-12-20T05:21:36;58.67;;;35.63;;
77111;SDS011;66064;50.226;14.344;2022-12-20T05:24:21;59.03;;;39.85;;
77111;SDS011;66064;50.226;14.344;2022-12-20T05:27:05;50.17;;;37.65;;
77111;SDS011;66064;50.226;14.344;2022-12-20T05:29:30;52.95;;;35.83;;
77111;SDS011;66064;50.226;14.344;2022-12-20T05:31:56;60.60;;;38.33;;
77111;SDS011;66064;50.226;14.344;2022-12-20T05:34:22;51.13;;;32.30;;
77111;SDS011;66064;50.226;14.344;2022-12-20T05:36:49;72.97;;;43.00;;
77111;SDS011;66064;50.226;14.344;2022-12-20T05:39:14;65.13;;;38.00;;
77111;SDS011;66064;50.226;14.344;2022-12-20T05:41:40;47.60;;;32.03;;
77111;SDS011;66064;50.226;14.344;2022-12-20T05:44:06;53.53;;;37.03;;
77111;SDS011;66064;50.226;14.344;2022-12-20T05:46:32;52.78;;;32.40;;
77111;SDS011;66064;50.226;14.344;2022-12-20T05:48:58;54.28;;;36.97;;
77111;SDS011;66064;50.226;14.344;2022-12-20T05:51:24;42.08;;;33.13;;
77111;SDS011;66064;50.226;14.344;2022-12-20T05:53:50;48.70;;;34.00;;
77111;SDS011;66064;50.226;14.344;2022-12-20T05:56:16;36.08;;;31.98;;
77111;SDS011;66064;50.226;14.344;2022-12-20T05:58:41;37.55;;;29.45;;
77111;SDS011;66064;50.226;14.344;2022-12-20T06:01:08;53.00;;;37.15;;
77111;SDS011;66064;50.226;14.344;2022-12-20T06:03:34;56.55;;;36.00;;
77111;SDS011;66064;50.226;14.344;2022-12-20T06:06:01;54.95;;;35.72;;
77111;SDS011;66064;50.226;14.344;2022-12-20T06:08:27;43.92;;;31.42;;
77111;SDS011;66064;50.226;14.344;2022-12-20T06:10:53;43.25;;;31.73;;
77111;SDS011;66064;50.226;14.344;2022-12-20T06:13:19;53.22;;;33.38;;
77111;SDS011;66064;50.226;14.344;2022-12-20T06:15:45;56.97;;;37.63;;
77111;SDS011;66064;50.226;14.344;2022-12-20T06:18:11;51.60;;;34.92;;
77111;SDS011;66064;50.226;14.344;2022-12-20T06:20:37;54.90;;;35.50;;
77111;SDS011;66064;50.226;14.344;2022-12-20T06:23:03;57.88;;;35.03;;
77111;SDS011;66064;50.226;14.344;2022-12-20T06:25:29;43.35;;;29.88;;
77111;SDS011;66064;50.226;14.344;2022-12-20T06:27:55;57.35;;;35.00;;
77111;SDS011;66064;50.226;14.344;2022-12-20T06:30:22;55.15;;;37.28;;
77111;SDS011;66064;50.226;14.344;2022-12-20T06:32:47;55.05;;;32.72;;
77111;SDS011;66064;50.226;14.344;2022-12-20T06:35:13;51.22;;;35.45;;
77111;SDS011;66064;50.226;14.344;2022-12-20T06:37:40;54.13;;;35.72;;
77111;SDS011;66064;50.226;14.344;2022-12-20T06:40:08;44.45;;;31.63;;
77111;SDS011;66064;50.226;14.344;2022-12-20T06:42:35;49.30;;;31.13;;
77111;SDS011;66064;50.226;14.344;2022-12-20T06:45:01;51.90;;;36.17;;
77111;SDS011;66064;50.226;14.344;2022-12-20T06:47:27;47.92;;;33.05;;
77111;SDS011;66064;50.226;14.344;2022-12-20T06:49:53;60.45;;;40.70;;
77111;SDS011;66064;50.226;14.344;2022-12-20T06:52:19;44.92;;;33.53;;
77111;SDS011;66064;50.226;14.344;2022-12-20T06:54:45;52.30;;;34.22;;
77111;SDS011;66064;50.226;14.344;2022-12-20T06:57:11;71.18;;;46.78;;
77111;SDS011;66064;50.226;14.344;2022-12-20T06:59:37;50.38;;;37.65;;
77111;SDS011;66064;50.226;14.344;2022-12-20T07:02:03;55.78;;;32.63;;
77111;SDS011;66064;50.226;14.344;2022-12-20T07:04:29;46.35;;;36.08;;
77111;SDS011;66064;50.226;14.344;2022-12-20T07:06:54;59.55;;;33.35;;
77111;SDS011;66064;50.226;14.344;2022-12-20T07:09:21;60.63;;;35.45;;
77111;SDS011;66064;50.226;14.344;2022-12-20T07:11:47;65.25;;;43.60;;
77111;SDS011;66064;50.226;14.344;2022-12-20T07:14:13;41.88;;;28.38;;
77111;SDS011;66064;50.226;14.344;2022-12-20T07:16:39;41.88;;;33.00;;
77111;SDS011;66064;50.226;14.344;2022-12-20T07:19:12;40.53;;;31.73;;
77111;SDS011;66064;50.226;14.344;2022-12-20T07:21:38;50.22;;;31.80;;
77111;SDS011;66064;50.226;14.344;2022-12-20T07:24:04;34.22;;;25.90;;
77111;SDS011;66064;50.226;14.344;2022-12-20T07:26:31;41.40;;;33.67;;
77111;SDS011;66064;50.226;14.344;2022-12-20T07:28:56;54.83;;;40.13;;
77111;SDS011;66064;50.226;14.344;2022-12-20T07:31:22;54.35;;;37.05;;
77111;SDS011;66064;50.226;14.344;2022-12-20T07:33:48;49.95;;;32.80;;
77111;SDS011;66064;50.226;14.344;2022-12-20T07:36:15;40.92;;;29.65;;
77111;SDS011;66064;50.226;14.344;2022-12-20T07:38:41;50.90;;;40.17;;
77111;SDS011;66064;50.226;14.344;2022-12-20T07:41:11;48.08;;;33.83;;
77111;SDS011;66064;50.226;14.344;2022-12-20T07:43:39;53.40;;;39.65;;
77111;SDS011;66064;50.226;14.344;2022-12-20T07:46:06;60.17;;;39.90;;
77111;SDS011;66064;50.226;14.344;2022-12-20T07:48:32;48.10;;;36.22;;
77111;SDS011;66064;50.226;14.344;2022-12-20T07:51:00;59.08;;;37.55;;
77111;SDS011;66064;50.226;14.344;2022-12-20T07:53:30;41.70;;;33.80;;
77111;SDS011;66064;50.226;14.344;2022-12-20T07:56:00;53.55;;;37.58;;
77111;SDS011;66064;50.226;14.344;2022-12-20T07:58:29;41.85;;;33.15;;
77111;SDS011;66064;50.226;14.344;2022-12-20T08:00:57;46.97;;;32.63;;
77111;SDS011;66064;50.226;14.344;2022-12-20T08:03:25;49.05;;;37.28;;
77111;SDS011;66064;50.226;14.344;2022-12-20T08:05:57;48.10;;;34.28;;
77111;SDS011;66064;50.226;14.344;2022-12-20T08:08:29;60.42;;;37.97;;
77111;SDS011;66064;50.226;14.344;2022-12-20T08:10:57;59.92;;;38.10;;
77111;SDS011;66064;50.226;14.344;2022-12-20T08:13:23;49.47;;;35.20;;
77111;SDS011;66064;50.226;14.344;2022-12-20T08:15:49;49.60;;;32.15;;
77111;SDS011;66064;50.226;14.344;2022-12-20T08:18:15;51.70;;;31.02;;
77111;SDS011;66064;50.226;14.344;2022-12-20T08:20:41;50.05;;;33.55;;
77111;SDS011;66064;50.226;14.344;2022-12-20T08:23:07;55.58;;;34.65;;
77111;SDS011;66064;50.226;14.344;2022-12-20T08:25:33;50.90;;;32.92;;
77111;SDS011;66064;50.226;14.344;2022-12-20T08:28:00;59.60;;;42.00;;
77111;SDS011;66064;50.226;14.344;2022-12-20T08:30:27;47.67;;;41.13;;
77111;SDS011;66064;50.226;14.344;2022-12-20T08:32:53;53.10;;;35.45;;
77111;SDS011;66064;50.226;14.344;2022-12-20T08:35:20;50.10;;;36.67;;
77111;SDS011;66064;50.226;14.344;2022-12-20T08:37:50;63.60;;;41.60;;
77111;SDS011;66064;50.226;14.344;2022-12-20T08:40:17;54.67;;;37.20;;
77111;SDS011;66064;50.226;14.344;2022-12-20T08:42:43;51.90;;;34.38;;
77111;SDS011;66064;50.226;14.344;2022-12-20T08:45:10;60.83;;;33.83;;
77111;SDS011;66064;50.226;14.344;2022-12-20T08:47:37;50.30;;;35.42;;
77111;SDS011;66064;50.226;14.344;2022-12-20T08:50:03;56.10;;;32.45;;
77111;SDS011;66064;50.226;14.344;2022-12-20T08:52:29;65.32;;;38.78;;
77111;SDS011;66064;50.226;14.344;2022-12-20T08:54:56;67.28;;;39.85;;
77111;SDS011;66064;50.226;14.344;2022-12-20T08:57:22;56.03;;;34.42;;
77111;SDS011;66064;50.226;14.344;2022-12-20T08:59:47;49.75;;;36.72;;
77111;SDS011;66064;50.226;14.344;2022-12-20T09:02:13;45.55;;;32.10;;
77111;SDS011;66064;50.226;14.344;2022-12-20T09:04:39;51.72;;;32.00;;
77111;SDS011;66064;50.226;14.344;2022-12-20T09:07:05;61.03;;;35.45;;
77111;SDS011;66064;50.226;14.344;2022-12-20T09:09:31;53.80;;;38.67;;
77111;SDS011;66064;50.226;14.344;2022-12-20T09:11:57;57.58;;;36.45;;
77111;SDS011;66064;50.226;14.344;2022-12-20T09:14:22;55.28;;;36.20;;
77111;SDS011;66064;50.226;14.344;2022-12-20T09:16:48;54.20;;;34.70;;
77111;SDS011;66064;50.226;14.344;2022-12-20T09:19:14;55.42;;;35.33;;
77111;SDS011;66064;50.226;14.344;2022-12-20T09:21:41;53.45;;;34.90;;
77111;SDS011;66064;50.226;14.344;2022-12-20T09:24:07;59.50;;;38.33;;
77111;SDS011;66064;50.226;14.344;2022-12-20T09:26:34;54.60;;;35.83;;
77111;SDS011;66064;50.226;14.344;2022-12-20T09:29:00;61.88;;;39.90;;
77111;SDS011;66064;50.226;14.344;2022-12-20T09:31:29;59.70;;;40.70;;
77111;SDS011;66064;50.226;14.344;2022-12-20T09:33:56;54.25;;;38.13;;
77111;SDS011;66064;50.226;14.344;2022-12-20T09:36:25;54.95;;;36.05;;
77111;SDS011;66064;50.226;14.344;2022-12-20T09:38:52;56.47;;;37.55;;
77111;SDS011;66064;50.226;14.344;2022-12-20T09:44:00;83.53;;;42.60;;
77111;SDS011;66064;50.226;14.344;2022-12-20T09:46:30;64.10;;;36.30;;
77111;SDS011;66064;50.226;14.344;2022-12-20T09:48:57;57.58;;;35.95;;
77111;SDS011;66064;50.226;14.344;2022-12-20T09:51:36;54.33;;;33.60;;
77111;SDS011;66064;50.226;14.344;2022-12-20T09:57:05;61.35;;;42.92;;
77111;SDS011;66064;50.226;14.344;2022-12-20T09:59:43;66.35;;;36.13;;
77111;SDS011;66064;50.226;14.344;2022-12-20T10:02:14;53.67;;;35.30;;
77111;SDS011;66064;50.226;14.344;2022-12-20T10:04:44;63.78;;;38.90;;
77111;SDS011;66064;50.226;14.344;2022-12-20T10:07:19;55.60;;;34.75;;
77111;SDS011;66064;50.226;14.344;2022-12-20T10:10:30;61.28;;;39.53;;
77111;SDS011;66064;50.226;14.344;2022-12-20T10:16:23;65.30;;;38.22;;
77111;SDS011;66064;50.226;14.344;2022-12-20T10:19:13;57.67;;;36.10;;
77111;SDS011;66064;50.226;14.344;2022-12-20T10:25:18;53.95;;;35.05;;
77111;SDS011;66064;50.226;14.344;2022-12-20T10:27:48;42.67;;;29.27;;
77111;SDS011;66064;50.226;14.344;2022-12-20T10:30:18;55.92;;;35.70;;
77111;SDS011;66064;50.226;14.344;2022-12-20T10:32:47;61.17;;;36.72;;
77111;SDS011;66064;50.226;14.344;2022-12-20T10:38:00;56.63;;;35.17;;
77111;SDS011;66064;50.226;14.344;2022-12-20T10:40:31;57.70;;;34.72;;
77111;SDS011;66064;50.226;14.344;2022-12-20T10:42:59;63.95;;;41.20;;
77111;SDS011;66064;50.226;14.344;2022-12-20T10:45:31;53.30;;;35.50;;
77111;SDS011;66064;50.226;14.344;2022-12-20T10:48:01;71.15;;;43.25;;
77111;SDS011;66064;50.226;14.344;2022-12-20T10:50:32;58.58;;;37.70;;
77111;SDS011;66064;50.226;14.344;2022-12-20T10:55:37;66.18;;;35.58;;
77111;SDS011;66064;50.226;14.344;2022-12-20T10:58:15;57.70;;;36.10;;
77111;SDS011;66064;50.226;14.344;2022-12-20T11:00:46;71.63;;;45.83;;
77111;SDS011;66064;50.226;14.344;2022-12-20T11:03:15;61.33;;;36.03;;
77111;SDS011;66064;50.226;14.344;2022-12-20T11:05:55;63.97;;;39.17;;
77111;SDS011;66064;50.226;14.344;2022-12-20T11:08:31;55.95;;;33.05;;
77111;SDS011;66064;50.226;14.344;2022-12-20T11:11:40;64.68;;;36.00;;
77111;SDS011;66064;50.226;14.344;2022-12-20T11:13:49;79.18;;;44.95;;
77111;SDS011;66064;50.226;14.344;2022-12-20T11:16:27;61.20;;;40.22;;
77111;SDS011;66064;50.226;14.344;2022-12-20T11:19:50;47.05;;;35.05;;
77111;SDS011;66064;50.226;14.344;2022-12-20T11:25:02;68.35;;;39.13;;
77111;SDS011;66064;50.226;14.344;2022-12-20T11:27:35;71.32;;;37.45;;
77111;SDS011;66064;50.226;14.344;2022-12-20T11:36:40;61.45;;;38.55;;
77111;SDS011;66064;50.226;14.344;2022-12-20T11:42:21;65.55;;;40.92;;
77111;SDS011;66064;50.226;14.344;2022-12-20T11:50:25;70.35;;;40.00;;
77111;SDS011;66064;50.226;14.344;2022-12-20T11:53:08;67.20;;;46.10;;
77111;SDS011;66064;50.226;14.344;2022-12-20T11:55:43;53.28;;;37.67;;
77111;SDS011;66064;50.226;14.344;2022-12-20T12:00:38;42.75;;;29.45;;
77111;SDS011;66064;50.226;14.344;2022-12-20T12:05:48;61.50;;;32.88;;
77111;SDS011;66064;50.226;14.344;2022-12-20T12:08:19;59.22;;;34.13;;
77111;SDS011;66064;50.226;14.344;2022-12-20T12:11:28;43.33;;;28.48;;
77111;SDS011;66064;50.226;14.344;2022-12-20T12:13:49;75.50;;;38.13;;
77111;SDS011;66064;50.226;14.344;2022-12-20T12:16:32;66.57;;;38.30;;
77111;SDS011;66064;50.226;14.344;2022-12-20T12:19:02;54.22;;;39.30;;
77111;SDS011;66064;50.226;14.344;2022-12-20T12:21:32;47.25;;;31.27;;
77111;SDS011;66064;50.226;14.344;2022-12-20T12:26:47;62.50;;;37.00;;
77111;SDS011;66064;50.226;14.344;2022-12-20T12:29:14;70.82;;;40.55;;
77111;SDS011;66064;50.226;14.344;2022-12-20T12:31:47;68.32;;;41.15;;
77111;SDS011;66064;50.226;14.344;2022-12-20T12:45:21;62.10;;;38.13;;
77111;SDS011;66064;50.226;14.344;2022-12-20T12:47:53;51.08;;;30.13;;
77111;SDS011;66064;50.226;14.344;2022-12-20T12:50:38;54.65;;;35.80;;
77111;SDS011;66064;50.226;14.344;2022-12-20T12:55:54;66.57;;;39.75;;
77111;SDS011;66064;50.226;14.344;2022-12-20T13:00:53;77.60;;;42.38;;
77111;SDS011;66064;50.226;14.344;2022-12-20T13:08:50;74.78;;;42.47;;
77111;SDS011;66064;50.226;14.344;2022-12-20T13:11:41;69.40;;;41.15;;
77111;SDS011;66064;50.226;14.344;2022-12-20T13:14:45;67.03;;;39.60;;
77111;SDS011;66064;50.226;14.344;2022-12-20T13:27:22;55.53;;;39.03;;
77111;SDS011;66064;50.226;14.344;2022-12-20T13:40:27;44.05;;;30.60;;
77111;SDS011;66064;50.226;14.344;2022-12-20T13:42:56;45.25;;;29.42;;
77111;SDS011;66064;50.226;14.344;2022-12-20T13:45:29;51.17;;;35.95;;
77111;SDS011;66064;50.226;14.344;2022-12-20T13:47:55;45.63;;;30.08;;
77111;SDS011;66064;50.226;14.344;2022-12-20T13:50:39;38.45;;;29.25;;
77111;SDS011;66064;50.226;14.344;2022-12-20T13:53:18;51.22;;;32.30;;
77111;SDS011;66064;50.226;14.344;2022-12-20T13:55:54;51.10;;;33.63;;
77111;SDS011;66064;50.226;14.344;2022-12-20T13:58:21;39.05;;;27.27;;
77111;SDS011;66064;50.226;14.344;2022-12-20T14:00:51;46.97;;;34.05;;
77111;SDS011;66064;50.226;14.344;2022-12-20T14:03:27;50.55;;;37.25;;
77111;SDS011;66064;50.226;14.344;2022-12-20T14:05:56;49.67;;;31.65;;
77111;SDS011;66064;50.226;14.344;2022-12-20T14:12:29;36.28;;;28.02;;
77111;SDS011;66064;50.226;14.344;2022-12-20T14:14:57;49.65;;;33.70;;
77111;SDS011;66064;50.226;14.344;2022-12-20T14:28:56;45.53;;;31.20;;
77111;SDS011;66064;50.226;14.344;2022-12-20T14:31:37;38.15;;;29.58;;
77111;SDS011;66064;50.226;14.344;2022-12-20T14:34:14;44.90;;;32.58;;
77111;SDS011;66064;50.226;14.344;2022-12-20T14:43:26;32.42;;;24.95;;
77111;SDS011;66064;50.226;14.344;2022-12-20T14:46:12;45.88;;;27.83;;
77111;SDS011;66064;50.226;14.344;2022-12-20T14:48:42;48.85;;;37.03;;
77111;SDS011;66064;50.226;14.344;2022-12-20T14:51:08;47.83;;;30.17;;
77111;SDS011;66064;50.226;14.344;2022-12-20T14:53:34;39.70;;;29.30;;
77111;SDS011;66064;50.226;14.344;2022-12-20T14:56:01;46.05;;;31.83;;
77111;SDS011;66064;50.226;14.344;2022-12-20T14:58:28;52.95;;;32.00;;
77111;SDS011;66064;50.226;14.344;2022-12-20T15:00:57;49.97;;;33.70;;
77111;SDS011;66064;50.226;14.344;2022-12-20T15:03:25;42.05;;;30.80;;
77111;SDS011;66064;50.226;14.344;2022-12-20T15:05:53;81.90;;;50.97;;
77111;SDS011;66064;50.226;14.344;2022-12-20T15:08:26;57.58;;;41.97;;
77111;SDS011;66064;50.226;14.344;2022-12-20T15:13:39;67.55;;;39.50;;
77111;SDS011;66064;50.226;14.344;2022-12-20T15:16:15;53.00;;;35.55;;
77111;SDS011;66064;50.226;14.344;2022-12-20T15:18:49;42.95;;;32.03;;
77111;SDS011;66064;50.226;14.344;2022-12-20T15:21:30;47.53;;;31.13;;
77111;SDS011;66064;50.226;14.344;2022-12-20T15:24:00;59.38;;;37.72;;
77111;SDS011;66064;50.226;14.344;2022-12-20T15:26:32;60.30;;;33.28;;
77111;SDS011;66064;50.226;14.344;2022-12-20T15:28:58;56.00;;;36.55;;
77111;SDS011;66064;50.226;14.344;2022-12-20T15:31:25;56.22;;;38.65;;
77111;SDS011;66064;50.226;14.344;2022-12-20T15:33:53;56.83;;;33.72;;
77111;SDS011;66064;50.226;14.344;2022-12-20T15:36:23;63.38;;;38.47;;
77111;SDS011;66064;50.226;14.344;2022-12-20T15:38:53;69.93;;;40.45;;
77111;SDS011;66064;50.226;14.344;2022-12-20T15:41:25;69.90;;;38.63;;
77111;SDS011;66064;50.226;14.344;2022-12-20T15:44:04;64.40;;;43.13;;
77111;SDS011;66064;50.226;14.344;2022-12-20T15:46:32;63.90;;;39.58;;
77111;SDS011;66064;50.226;14.344;2022-12-20T15:48:58;61.25;;;37.47;;
77111;SDS011;66064;50.226;14.344;2022-12-20T15:51:31;62.45;;;38.65;;
77111;SDS011;66064;50.226;14.344;2022-12-20T15:54:00;53.85;;;33.47;;
77111;SDS011;66064;50.226;14.344;2022-12-20T15:56:27;59.90;;;38.50;;
77111;SDS011;66064;50.226;14.344;2022-12-20T15:58:53;46.85;;;33.47;;
77111;SDS011;66064;50.226;14.344;2022-12-20T16:01:21;59.35;;;39.17;;
77111;SDS011;66064;50.226;14.344;2022-12-20T16:03:58;64.68;;;37.45;;
77111;SDS011;66064;50.226;14.344;2022-12-20T16:06:24;67.20;;;40.72;;
77111;SDS011;66064;50.226;14.344;2022-12-20T16:08:50;66.78;;;44.45;;
77111;SDS011;66064;50.226;14.344;2022-12-20T16:11:20;58.83;;;34.33;;
77111;SDS011;66064;50.226;14.344;2022-12-20T16:13:48;56.08;;;34.63;;
77111;SDS011;66064;50.226;14.344;2022-12-20T16:16:19;55.97;;;37.78;;
77111;SDS011;66064;50.226;14.344;2022-12-20T16:18:46;61.60;;;41.08;;
77111;SDS011;66064;50.226;14.344;2022-12-20T16:21:17;58.40;;;33.55;;
77111;SDS011;66064;50.226;14.344;2022-12-20T16:23:51;64.15;;;35.70;;
77111;SDS011;66064;50.226;14.344;2022-12-20T16:26:22;50.72;;;34.40;;
77111;SDS011;66064;50.226;14.344;2022-12-20T16:28:50;51.75;;;33.00;;
77111;SDS011;66064;50.226;14.344;2022-12-20T16:33:47;63.85;;;33.08;;